createdAt,value
2018-05-09T00:02:09.123Z,3.17
2018-05-09T00:04:36.609Z,3.50
2018-05-09T00:07:04.107Z,3.77
2018-05-09T00:09:31.616Z,3.43
2018-05-09T00:11:59.116Z,3.63
2018-05-09T00:14:26.654Z,3.37
2018-05-09T00:16:54.135Z,3.47
2018-05-09T00:19:21.660Z,3.53
2018-05-09T00:21:49.157Z,3.30
2018-05-09T00:24:16.647Z,3.50
2018-05-09T00:26:44.143Z,3.77
2018-05-09T00:29:11.652Z,3.80
2018-05-09T00:31:39.174Z,3.93
2018-05-09T00:34:06.653Z,3.40
2018-05-09T00:36:34.145Z,4.03
2018-05-09T00:39:01.622Z,3.93
2018-05-09T00:41:29.114Z,3.50
2018-05-09T00:43:56.604Z,3.60
2018-05-09T00:46:24.115Z,3.90
2018-05-09T00:48:51.625Z,3.70
2018-05-09T00:51:19.140Z,4.10
2018-05-09T00:53:46.640Z,4.20
2018-05-09T00:56:14.139Z,4.00
2018-05-09T00:58:41.653Z,4.37
2018-05-09T01:01:09.152Z,4.00
2018-05-09T01:03:36.668Z,5.03
2018-05-09T01:06:04.185Z,4.33
2018-05-09T01:08:31.691Z,4.27
2018-05-09T01:10:59.177Z,4.50
2018-05-09T01:13:26.682Z,3.90
2018-05-09T01:15:54.144Z,4.20
2018-05-09T01:18:21.656Z,4.17
2018-05-09T01:20:49.219Z,4.67
2018-05-09T01:23:16.740Z,4.07
2018-05-09T01:25:44.265Z,4.50
2018-05-09T01:28:11.788Z,4.67
2018-05-09T01:30:39.252Z,4.60
2018-05-09T01:33:06.772Z,4.10
2018-05-09T01:35:34.285Z,4.40
2018-05-09T01:38:01.810Z,4.47
2018-05-09T01:40:29.297Z,4.47
2018-05-09T01:42:56.830Z,4.43
2018-05-09T01:45:24.347Z,4.87
2018-05-09T01:47:51.846Z,4.90
2018-05-09T01:50:19.335Z,4.57
2018-05-09T01:52:46.819Z,4.77
2018-05-09T01:55:14.359Z,5.40
2018-05-09T01:57:41.881Z,4.57
2018-05-09T02:00:09.360Z,4.90
2018-05-09T02:02:36.858Z,5.00
2018-05-09T02:05:04.383Z,4.30
2018-05-09T02:07:31.867Z,4.37
2018-05-09T02:09:59.390Z,4.77
2018-05-09T02:12:26.908Z,5.13
2018-05-09T02:14:54.446Z,4.20
2018-05-09T02:17:21.951Z,5.27
2018-05-09T02:19:49.447Z,4.80
2018-05-09T02:22:16.971Z,4.10
2018-05-09T02:24:44.455Z,4.57
2018-05-09T02:27:11.993Z,5.40
2018-05-09T02:29:39.468Z,5.53
2018-05-09T02:32:06.964Z,5.03
2018-05-09T02:34:34.463Z,4.80
2018-05-09T02:37:01.958Z,4.63
2018-05-09T02:39:29.449Z,5.13
2018-05-09T02:41:56.937Z,4.70
2018-05-09T02:44:24.427Z,4.90
2018-05-09T02:46:51.929Z,5.00
2018-05-09T02:49:19.420Z,5.33
2018-05-09T02:51:46.985Z,4.67
2018-05-09T02:54:14.541Z,4.80
2018-05-09T02:56:42.098Z,5.20
2018-05-09T02:59:09.572Z,4.23
2018-05-09T03:01:37.076Z,5.30
2018-05-09T03:04:04.544Z,4.87
2018-05-09T03:06:32.040Z,4.80
2018-05-09T03:08:59.561Z,5.57
2018-05-09T03:11:27.049Z,5.60
2018-05-09T03:13:54.578Z,5.87
2018-05-09T03:16:22.067Z,5.47
2018-05-09T03:18:49.546Z,5.30
2018-05-09T03:21:17.066Z,5.07
2018-05-09T03:23:44.599Z,4.90
2018-05-09T03:26:12.118Z,5.97
2018-05-09T03:28:39.618Z,4.70
2018-05-09T03:31:07.090Z,4.83
2018-05-09T03:33:34.591Z,5.10
2018-05-09T03:36:02.064Z,5.27
2018-05-09T03:38:29.559Z,5.17
2018-05-09T03:40:57.051Z,5.37
2018-05-09T03:43:24.671Z,5.63
2018-05-09T03:45:52.162Z,5.57
2018-05-09T03:48:19.863Z,5.40
2018-05-09T03:50:47.348Z,6.13
2018-05-09T03:53:14.916Z,5.57
2018-05-09T03:55:42.365Z,6.03
2018-05-09T03:58:09.931Z,5.43
2018-05-09T04:00:37.409Z,5.77
2018-05-09T04:03:16.708Z,4.90
2018-05-09T04:05:55.955Z,5.40
2018-05-09T04:08:35.053Z,5.93
2018-05-09T04:11:02.588Z,6.03
2018-05-09T04:13:30.348Z,6.10
2018-05-09T04:15:57.858Z,6.80
2018-05-09T04:18:25.331Z,5.90
2018-05-09T04:20:52.949Z,6.00
2018-05-09T04:23:20.428Z,5.70
2018-05-09T04:25:48.194Z,5.30
2018-05-09T04:28:16.816Z,5.87
2018-05-09T04:30:44.104Z,5.70
2018-05-09T04:33:11.599Z,5.83
2018-05-09T04:35:39.138Z,6.33
2018-05-09T04:38:06.642Z,5.90
2018-05-09T04:40:34.127Z,5.80
2018-05-09T04:43:01.620Z,6.27
2018-05-09T04:45:29.096Z,6.27
2018-05-09T04:47:56.615Z,6.07
2018-05-09T04:50:24.105Z,5.90
2018-05-09T04:52:51.621Z,5.50
2018-05-09T04:55:19.294Z,6.63
2018-05-09T04:57:46.787Z,5.50
2018-05-09T05:00:14.305Z,5.50
2018-05-09T05:02:41.803Z,6.07
2018-05-09T05:05:09.310Z,6.70
2018-05-09T05:07:36.844Z,5.27
2018-05-09T05:10:04.341Z,5.90
2018-05-09T05:12:31.857Z,5.50
2018-05-09T05:14:59.358Z,5.33
2018-05-09T05:17:26.840Z,5.80
2018-05-09T05:19:54.348Z,5.30
2018-05-09T05:22:21.840Z,5.53
2018-05-09T05:24:49.365Z,5.20
2018-05-09T05:27:16.879Z,4.97
2018-05-09T05:29:44.363Z,5.27
2018-05-09T05:32:11.895Z,5.23
2018-05-09T05:34:39.418Z,5.23
2018-05-09T05:37:06.941Z,5.53
2018-05-09T05:39:34.589Z,5.13
2018-05-09T05:42:02.060Z,5.13
2018-05-09T05:44:29.537Z,5.57
2018-05-09T05:46:57.071Z,5.40
2018-05-09T05:49:24.551Z,5.47
2018-05-09T05:51:52.089Z,4.73
2018-05-09T05:54:19.591Z,4.67
2018-05-09T05:56:47.119Z,5.57
2018-05-09T05:59:14.591Z,5.20
2018-05-09T06:01:42.078Z,5.17
2018-05-09T06:04:09.556Z,4.50
2018-05-09T06:06:37.037Z,4.37
2018-05-09T06:09:04.625Z,4.67
2018-05-09T06:11:32.121Z,4.27
2018-05-09T06:13:59.638Z,4.03
2018-05-09T06:16:27.178Z,4.13
2018-05-09T06:18:54.725Z,4.40
2018-05-09T06:21:22.212Z,3.77
2018-05-09T06:23:49.837Z,4.40
2018-05-09T06:26:17.277Z,4.03
2018-05-09T06:28:44.762Z,4.03
2018-05-09T06:31:12.255Z,3.87
2018-05-09T06:33:39.759Z,3.57
2018-05-09T06:36:07.271Z,4.03
2018-05-09T06:38:34.794Z,4.40
2018-05-09T06:41:02.324Z,3.53
2018-05-09T06:43:29.883Z,3.73
2018-05-09T06:45:57.388Z,3.60
2018-05-09T06:48:24.885Z,3.80
2018-05-09T06:50:52.374Z,4.07
2018-05-09T06:53:19.899Z,4.20
2018-05-09T06:55:47.406Z,3.63
2018-05-09T06:58:14.929Z,4.13
2018-05-09T07:00:42.448Z,4.10
2018-05-09T07:03:09.971Z,4.00
2018-05-09T07:05:37.479Z,3.80
2018-05-09T07:08:04.996Z,3.97
2018-05-09T07:10:32.529Z,4.07
2018-05-09T07:13:00.037Z,4.27
2018-05-09T07:15:27.532Z,3.90
2018-05-09T07:17:55.008Z,3.43
2018-05-09T07:20:22.503Z,3.63
2018-05-09T07:22:49.972Z,3.77
2018-05-09T07:25:17.480Z,3.50
2018-05-09T07:27:44.954Z,3.80
2018-05-09T07:30:12.466Z,3.40
2018-05-09T07:32:39.980Z,4.03
2018-05-09T07:35:07.489Z,3.97
2018-05-09T07:37:34.960Z,3.50
2018-05-09T07:40:02.468Z,3.83
2018-05-09T07:42:29.968Z,3.33
2018-05-09T07:44:57.512Z,3.30
2018-05-09T07:47:25.010Z,3.10
2018-05-09T07:49:52.535Z,3.50
2018-05-09T07:52:20.054Z,3.40
2018-05-09T07:54:47.521Z,4.00
2018-05-09T07:57:14.999Z,2.70
2018-05-09T07:59:42.500Z,3.17
2018-05-09T08:02:09.997Z,3.43
2018-05-09T08:04:37.488Z,3.30
2018-05-09T08:07:05.069Z,3.60
2018-05-09T08:09:32.519Z,3.50
2018-05-09T08:12:00.005Z,3.90
2018-05-09T08:14:27.497Z,3.50
2018-05-09T08:16:55.015Z,3.87
2018-05-09T08:19:22.516Z,3.50
2018-05-09T08:21:50.038Z,3.77
2018-05-09T08:24:17.563Z,4.00
2018-05-09T08:26:45.079Z,4.03
2018-05-09T08:29:12.580Z,3.70
2018-05-09T08:31:40.078Z,4.00
2018-05-09T08:34:07.556Z,3.80
2018-05-09T08:36:35.148Z,3.60
2018-05-09T08:39:02.565Z,3.80
2018-05-09T08:41:30.058Z,3.40
2018-05-09T08:43:57.552Z,3.87
2018-05-09T08:46:25.085Z,3.67
2018-05-09T08:48:52.584Z,3.40
2018-05-09T08:51:20.090Z,3.60
2018-05-09T08:53:47.606Z,4.00
2018-05-09T08:56:15.101Z,4.27
2018-05-09T08:58:42.582Z,3.77
2018-05-09T09:01:10.112Z,4.17
2018-05-09T09:03:37.602Z,4.50
2018-05-09T09:06:05.091Z,3.57
2018-05-09T09:08:32.710Z,3.67
2018-05-09T09:11:00.263Z,3.60
2018-05-09T09:13:27.814Z,3.00
2018-05-09T09:15:55.354Z,3.40
2018-05-09T09:18:22.833Z,3.60
2018-05-09T09:20:50.446Z,4.27
2018-05-09T09:23:17.870Z,3.57
2018-05-09T09:25:45.332Z,3.67
2018-05-09T09:28:12.815Z,3.37
2018-05-09T09:30:40.321Z,3.17
2018-05-09T09:33:07.832Z,4.27
2018-05-09T09:35:35.333Z,3.63
2018-05-09T09:38:02.838Z,3.20
2018-05-09T09:40:30.356Z,3.87
2018-05-09T09:42:57.840Z,3.33
2018-05-09T09:45:25.336Z,3.90
2018-05-09T09:47:52.851Z,3.60
2018-05-09T09:50:20.355Z,3.20
2018-05-09T09:52:47.859Z,4.10
2018-05-09T09:55:15.332Z,3.70
2018-05-09T09:57:42.849Z,3.10
2018-05-09T10:00:10.328Z,3.40
2018-05-09T10:02:37.883Z,3.90
2018-05-09T10:05:05.368Z,3.60
2018-05-09T10:07:32.876Z,3.33
2018-05-09T10:10:00.379Z,4.20
2018-05-09T10:12:27.882Z,3.37
2018-05-09T10:14:55.411Z,3.33
2018-05-09T10:17:22.945Z,3.83
2018-05-09T10:19:50.483Z,3.37
2018-05-09T10:22:18.117Z,3.70
2018-05-09T10:24:45.612Z,3.20
2018-05-09T10:27:13.099Z,3.20
2018-05-09T10:29:40.592Z,3.03
2018-05-09T10:32:08.105Z,3.17
2018-05-09T10:34:35.628Z,2.97
2018-05-09T10:37:03.132Z,3.20
2018-05-09T10:39:30.616Z,2.93
2018-05-09T10:41:58.098Z,3.47
2018-05-09T10:44:25.603Z,4.10
2018-05-09T10:46:53.125Z,4.30
2018-05-09T10:49:20.618Z,3.37
2018-05-09T10:51:48.144Z,3.33
2018-05-09T10:54:15.655Z,4.40
2018-05-09T10:56:43.171Z,4.10
2018-05-09T10:59:10.671Z,3.40
2018-05-09T11:01:38.157Z,3.45
2018-05-09T11:04:05.706Z,3.23
2018-05-09T11:06:33.183Z,4.20
2018-05-09T11:09:00.736Z,3.83
2018-05-09T11:11:28.234Z,3.22
2018-05-09T11:13:55.774Z,4.00
2018-05-09T11:16:23.287Z,3.10
2018-05-09T11:18:50.770Z,3.30
2018-05-09T11:21:18.268Z,3.30
2018-05-09T11:23:45.744Z,3.08
2018-05-09T11:26:13.295Z,3.00
2018-05-09T11:28:40.775Z,3.00
2018-05-09T11:31:08.285Z,2.73
2018-05-09T11:33:35.767Z,3.60
2018-05-09T11:36:03.379Z,3.43
2018-05-09T11:38:30.871Z,3.40
2018-05-09T11:40:58.324Z,3.30
2018-05-09T11:43:25.805Z,3.30
2018-05-09T11:45:53.302Z,3.10
2018-05-09T11:48:20.811Z,3.28
2018-05-09T11:50:48.305Z,3.47
2018-05-09T11:53:15.850Z,3.20
2018-05-09T11:55:43.340Z,3.90
2018-05-09T11:58:10.861Z,3.60
2018-05-09T12:00:38.360Z,3.00
2018-05-09T12:03:05.849Z,3.50
2018-05-09T12:05:33.352Z,3.50
2018-05-09T12:08:00.867Z,3.47
2018-05-09T12:10:28.496Z,3.57
2018-05-09T12:12:55.934Z,3.67
2018-05-09T12:15:23.416Z,3.60
2018-05-09T12:17:50.984Z,4.20
2018-05-09T12:20:18.481Z,4.13
2018-05-09T12:22:46.068Z,4.03
2018-05-09T12:25:13.607Z,4.10
2018-05-09T12:27:41.411Z,4.37
2018-05-09T12:30:08.994Z,4.50
2018-05-09T12:32:37.202Z,3.83
2018-05-09T12:35:04.812Z,3.37
2018-05-09T12:37:32.461Z,3.63
2018-05-09T12:39:59.979Z,4.00
2018-05-09T12:42:27.968Z,4.30
2018-05-09T12:44:55.503Z,4.47
2018-05-09T12:47:23.016Z,4.33
2018-05-09T12:49:50.532Z,3.70
2018-05-09T12:52:18.055Z,4.80
2018-05-09T12:54:45.561Z,4.00
2018-05-09T12:57:13.085Z,4.10
2018-05-09T12:59:40.600Z,4.27
2018-05-09T13:02:08.095Z,5.20
2018-05-09T13:04:35.574Z,4.73
2018-05-09T13:07:03.090Z,4.12
2018-05-09T13:09:30.630Z,4.23
2018-05-09T13:11:58.183Z,4.43
2018-05-09T13:14:25.700Z,4.30
2018-05-09T13:16:53.256Z,4.37
2018-05-09T13:19:20.738Z,4.37
2018-05-09T13:21:48.246Z,4.35
2018-05-09T13:24:15.742Z,4.00
2018-05-09T13:26:43.276Z,4.28
2018-05-09T13:29:10.831Z,4.70
2018-05-09T13:31:38.392Z,4.22
2018-05-09T13:34:05.853Z,4.30
2018-05-09T13:36:33.333Z,4.22
2018-05-09T13:39:00.829Z,4.20
2018-05-09T13:41:28.314Z,4.95
2018-05-09T13:43:55.888Z,4.72
2018-05-09T13:46:23.433Z,4.37
2018-05-09T13:48:50.904Z,4.80
2018-05-09T13:51:18.460Z,5.07
2018-05-09T13:53:46.037Z,4.67
2018-05-09T13:56:13.496Z,5.40
2018-05-09T13:58:41.002Z,4.72
2018-05-09T14:01:08.508Z,4.65
2018-05-09T14:03:36.005Z,4.57
2018-05-09T14:06:03.524Z,4.63
2018-05-09T14:08:30.990Z,4.47
2018-05-09T14:10:58.512Z,4.37
2018-05-09T14:13:26.005Z,4.47
2018-05-09T14:15:53.500Z,3.97
2018-05-09T14:18:21.006Z,3.93
2018-05-09T14:20:48.516Z,4.00
2018-05-09T14:23:16.022Z,4.40
2018-05-09T14:25:43.515Z,4.68
2018-05-09T14:28:11.001Z,4.17
2018-05-09T14:30:39.163Z,4.57
2018-05-09T14:33:06.640Z,4.70
2018-05-09T14:35:34.164Z,4.87
2018-05-09T14:38:01.652Z,4.73
2018-05-09T14:40:29.213Z,4.17
2018-05-09T14:42:56.691Z,4.63
2018-05-09T14:45:24.171Z,5.03
2018-05-09T14:47:51.665Z,4.20
2018-05-09T14:50:19.191Z,4.53
2018-05-09T14:52:46.678Z,4.27
2018-05-09T14:55:14.180Z,4.17
2018-05-09T14:57:41.710Z,4.40
2018-05-09T15:00:09.257Z,4.57
2018-05-09T15:02:36.706Z,5.03
2018-05-09T15:05:04.262Z,4.23
2018-05-09T15:07:31.742Z,4.03
2018-05-09T15:09:59.247Z,4.17
2018-05-09T15:12:26.766Z,4.63
2018-05-09T15:14:54.263Z,4.60
2018-05-09T15:17:21.854Z,4.33
2018-05-09T15:19:49.383Z,4.10
2018-05-09T15:22:16.879Z,4.60
2018-05-09T15:24:44.396Z,4.60
2018-05-09T15:27:11.900Z,4.50
2018-05-09T15:29:39.566Z,4.60
2018-05-09T15:32:07.059Z,4.43
2018-05-09T15:34:34.566Z,4.70
2018-05-09T15:37:02.131Z,4.37
2018-05-09T15:39:29.747Z,4.70
2018-05-09T15:41:57.214Z,4.87
2018-05-09T15:44:24.718Z,4.80
2018-05-09T15:46:52.250Z,4.30
2018-05-09T15:49:19.777Z,4.83
2018-05-09T15:51:47.265Z,4.03
2018-05-09T15:54:14.760Z,4.47
2018-05-09T15:56:42.398Z,4.60
2018-05-09T15:59:09.869Z,4.70
2018-05-09T16:01:37.584Z,4.33
2018-05-09T16:04:05.077Z,4.63
2018-05-09T16:06:32.843Z,4.30
2018-05-09T16:09:00.342Z,4.60
2018-05-09T16:11:27.856Z,4.47
2018-05-09T16:13:55.363Z,4.20
2018-05-09T16:16:24.422Z,4.33
2018-05-09T16:18:51.984Z,5.20
2018-05-09T16:21:19.502Z,4.60
2018-05-09T16:23:47.008Z,4.83
2018-05-09T16:26:14.502Z,4.90
2018-05-09T16:28:41.981Z,4.57
2018-05-09T16:31:09.483Z,4.70
2018-05-09T16:33:36.991Z,4.47
2018-05-09T16:36:04.497Z,3.97
2018-05-09T16:38:31.989Z,4.17
2018-05-09T16:40:59.511Z,5.57
2018-05-09T16:43:28.709Z,4.43
2018-05-09T16:45:56.209Z,5.07
2018-05-09T16:48:23.703Z,5.37
2018-05-09T16:50:51.200Z,5.53
2018-05-09T16:53:18.767Z,4.87
2018-05-09T16:55:46.235Z,7.03
2018-05-09T16:58:13.761Z,8.00
2018-05-09T17:00:41.272Z,4.90
2018-05-09T17:03:08.965Z,4.50
2018-05-09T17:05:36.676Z,4.97
2018-05-09T17:08:05.107Z,4.07
2018-05-09T17:10:34.085Z,4.67
2018-05-09T17:13:01.625Z,4.20
2018-05-09T17:15:29.087Z,4.37
2018-05-09T17:17:56.607Z,4.30
2018-05-09T17:20:24.106Z,4.87
2018-05-09T17:22:51.616Z,4.37
2018-05-09T17:25:19.096Z,4.37
2018-05-09T17:27:46.598Z,4.60
2018-05-09T17:30:14.083Z,4.83
2018-05-09T17:32:41.619Z,4.30
2018-05-09T17:35:09.126Z,4.17
2018-05-09T17:37:36.743Z,4.27
2018-05-09T17:40:04.232Z,4.40
2018-05-09T17:42:31.749Z,4.40
2018-05-09T17:44:59.431Z,5.30
2018-05-09T17:47:27.119Z,5.07
2018-05-09T17:49:54.603Z,4.53
2018-05-09T17:52:22.113Z,4.03
2018-05-09T17:54:49.642Z,5.13
2018-05-09T17:57:17.151Z,5.40
2018-05-09T17:59:44.647Z,5.00
2018-05-09T18:02:12.152Z,4.50
2018-05-09T18:04:39.695Z,4.10
2018-05-09T18:07:07.220Z,5.77
2018-05-09T18:09:34.722Z,4.90
2018-05-09T18:12:02.226Z,4.10
2018-05-09T18:14:29.740Z,4.67
2018-05-09T18:16:57.518Z,4.87
2018-05-09T18:19:27.211Z,4.80
2018-05-09T18:21:54.919Z,4.53
2018-05-09T18:24:22.458Z,4.83
2018-05-09T18:26:50.041Z,5.00
2018-05-09T18:29:17.493Z,4.40
2018-05-09T18:31:44.989Z,5.33
2018-05-09T18:34:12.479Z,4.73
2018-05-09T18:36:39.967Z,5.03
2018-05-09T18:39:07.451Z,5.67
2018-05-09T18:41:35.015Z,4.67
2018-05-09T18:44:02.508Z,5.60
2018-05-09T18:46:30.003Z,4.80
2018-05-09T18:48:57.502Z,4.77
2018-05-09T18:51:25.081Z,5.10
2018-05-09T18:53:52.604Z,5.10
2018-05-09T18:56:20.117Z,5.33
2018-05-09T18:58:47.636Z,5.37
2018-05-09T19:01:15.164Z,5.07
2018-05-09T19:03:42.651Z,5.63
2018-05-09T19:06:10.196Z,5.67
2018-05-09T19:08:37.670Z,5.70
2018-05-09T19:11:05.152Z,4.87
2018-05-09T19:13:32.648Z,5.83
2018-05-09T19:16:00.290Z,5.37
2018-05-09T19:18:27.779Z,5.80
2018-05-09T19:20:55.298Z,5.43
2018-05-09T19:23:22.795Z,7.60
2018-05-09T19:25:50.270Z,5.07
2018-05-09T19:28:17.762Z,5.53
2018-05-09T19:30:45.323Z,5.53
2018-05-09T19:33:12.830Z,5.57
2018-05-09T19:35:40.581Z,5.97
2018-05-09T19:38:08.087Z,5.33
2018-05-09T19:40:35.595Z,5.50
2018-05-09T19:43:03.109Z,5.13
2018-05-09T19:45:30.631Z,6.40
2018-05-09T19:47:58.422Z,5.63
2018-05-09T19:50:25.913Z,6.30
2018-05-09T19:52:53.414Z,5.23
2018-05-09T19:55:20.916Z,5.90
2018-05-09T19:57:48.408Z,5.70
2018-05-09T20:00:15.937Z,6.07
2018-05-09T20:05:23.377Z,5.83
2018-05-09T20:07:50.964Z,6.10
2018-05-09T20:10:18.453Z,5.47
2018-05-09T20:12:45.941Z,5.47
2018-05-09T20:15:13.443Z,5.23
2018-05-09T20:17:40.923Z,5.73
2018-05-09T20:20:08.416Z,6.47
2018-05-09T20:22:36.112Z,5.70
2018-05-09T20:25:03.905Z,5.90
2018-05-09T20:27:31.482Z,6.37
2018-05-09T20:29:59.020Z,6.63
2018-05-09T20:32:40.169Z,5.97
2018-05-09T20:35:07.671Z,6.07
2018-05-09T20:37:35.149Z,6.00
2018-05-09T20:40:02.639Z,6.40
2018-05-09T20:42:30.147Z,6.00
2018-05-09T20:44:57.618Z,6.07
2018-05-09T20:47:25.132Z,6.67
2018-05-09T20:49:52.615Z,5.70
2018-05-09T20:52:20.099Z,5.93
2018-05-09T20:54:47.611Z,5.93
2018-05-09T20:57:15.946Z,5.27
2018-05-09T20:59:43.631Z,5.80
2018-05-09T21:02:11.103Z,6.47
2018-05-09T21:04:38.903Z,6.40
2018-05-09T21:07:06.405Z,6.77
2018-05-09T21:09:33.870Z,6.50
2018-05-09T21:12:09.212Z,6.33
2018-05-09T21:14:36.718Z,6.30
2018-05-09T21:17:04.200Z,6.67
2018-05-09T21:19:31.679Z,6.67
2018-05-09T21:21:59.161Z,6.07
2018-05-09T21:24:26.708Z,7.07
2018-05-09T21:26:54.228Z,6.90
2018-05-09T21:29:21.713Z,7.00
2018-05-09T21:31:49.192Z,6.90
2018-05-09T21:34:16.691Z,7.40
2018-05-09T21:36:44.165Z,7.13
2018-05-09T21:39:11.667Z,7.47
2018-05-09T21:41:39.160Z,7.70
2018-05-09T21:44:06.712Z,7.47
2018-05-09T21:46:34.262Z,7.23
2018-05-09T21:49:01.992Z,7.73
2018-05-09T21:51:29.515Z,8.20
2018-05-09T21:53:56.999Z,7.87
2018-05-09T21:56:24.506Z,8.20
2018-05-09T21:58:52.028Z,8.33
2018-05-09T22:01:26.274Z,7.63
2018-05-09T22:03:53.820Z,8.43
2018-05-09T22:06:21.311Z,7.90
2018-05-09T22:08:48.855Z,7.80
2018-05-09T22:11:16.377Z,8.83
2018-05-09T22:13:43.885Z,8.23
2018-05-09T22:16:11.405Z,8.37
2018-05-09T22:18:38.899Z,7.90
2018-05-09T22:21:06.386Z,8.03
2018-05-09T22:23:33.852Z,7.23
2018-05-09T22:26:01.354Z,7.87
2018-05-09T22:28:28.952Z,8.13
2018-05-09T22:30:56.436Z,8.43
2018-05-09T22:33:23.934Z,8.17
2018-05-09T22:35:51.440Z,8.17
2018-05-09T22:38:19.040Z,9.33
2018-05-09T22:40:46.553Z,8.80
2018-05-09T22:43:14.039Z,9.27
2018-05-09T22:45:41.544Z,8.63
2018-05-09T22:48:09.052Z,8.37
2018-05-09T22:50:36.561Z,7.93
2018-05-09T22:53:04.059Z,7.87
2018-05-09T22:55:31.589Z,8.20
2018-05-09T22:57:59.061Z,8.40
2018-05-09T23:00:26.569Z,8.10
2018-05-09T23:02:54.058Z,8.97
2018-05-09T23:05:21.561Z,7.87
2018-05-09T23:07:49.065Z,8.00
2018-05-09T23:10:16.612Z,7.50
2018-05-09T23:12:44.157Z,6.97
2018-05-09T23:15:11.666Z,8.20
2018-05-09T23:17:39.186Z,7.20
2018-05-09T23:20:06.672Z,8.53
2018-05-09T23:22:34.167Z,7.80
2018-05-09T23:25:01.766Z,7.97
2018-05-09T23:27:29.279Z,8.40
2018-05-09T23:29:56.782Z,7.80
2018-05-09T23:32:24.261Z,8.03
2018-05-09T23:34:51.778Z,8.03
2018-05-09T23:37:19.260Z,8.43
2018-05-09T23:39:46.758Z,9.00
2018-05-09T23:42:14.276Z,8.37
2018-05-09T23:44:41.773Z,8.30
2018-05-09T23:47:09.266Z,8.67
2018-05-09T23:49:36.780Z,9.27
2018-05-09T23:52:04.378Z,9.27
2018-05-09T23:54:31.801Z,8.97
2018-05-09T23:56:59.277Z,8.90
2018-05-09T23:59:26.771Z,8.60
